createdAt,value
2022-07-25T00:00:19.079Z,23.4
2022-07-25T00:02:34.032Z,23.5
2022-07-25T00:04:48.993Z,23.9
2022-07-25T00:07:03.762Z,23.9
2022-07-25T00:09:19.025Z,23.9
2022-07-25T00:11:33.698Z,24
2022-07-25T00:13:49.095Z,23.9
2022-07-25T00:16:03.796Z,24.3
2022-07-25T00:18:18.809Z,24
2022-07-25T00:20:33.754Z,23.7
2022-07-25T00:22:48.655Z,23.9
2022-07-25T00:25:03.496Z,23.8
2022-07-25T00:27:18.623Z,24
2022-07-25T00:29:33.356Z,24.3
2022-07-25T00:31:48.383Z,24.3
2022-07-25T00:34:03.680Z,23.4
2022-07-25T00:36:18.218Z,24
2022-07-25T00:38:33.360Z,23.3
2022-07-25T00:40:53.260Z,24.1
2022-07-25T00:43:03.329Z,23.9
2022-07-25T00:45:18.134Z,23.9
2022-07-25T00:47:33.235Z,23.8
2022-07-25T00:49:48.033Z,23.8
2022-07-25T00:52:02.924Z,23.8
2022-07-25T00:54:18.029Z,23.7
2022-07-25T00:56:32.991Z,23.6
2022-07-25T00:58:48.000Z,24.1
2022-07-25T01:01:02.700Z,24.4
2022-07-25T01:03:17.925Z,23.4
2022-07-25T01:05:32.701Z,24
2022-07-25T01:07:47.818Z,24.7
2022-07-25T01:10:02.689Z,24.1
2022-07-25T01:12:17.744Z,24.2
2022-07-25T01:14:32.550Z,24.9
2022-07-25T01:16:47.487Z,23.9
2022-07-25T01:19:02.480Z,23.8
2022-07-25T01:21:17.437Z,25.1
2022-07-25T01:23:32.418Z,24.9
2022-07-25T01:25:47.476Z,23.8
2022-07-25T01:28:02.423Z,23.1
2022-07-25T01:30:17.502Z,24.4
2022-07-25T01:32:32.319Z,25.3
2022-07-25T01:34:47.166Z,24.4
2022-07-25T01:37:02.047Z,24.1
2022-07-25T01:39:17.057Z,24.1
2022-07-25T01:41:31.916Z,23.1
2022-07-25T01:43:47.003Z,24.1
2022-07-25T01:46:01.939Z,23.3
2022-07-25T01:48:16.989Z,24.6
2022-07-25T01:50:31.971Z,24.5
2022-07-25T01:52:46.880Z,24.5
2022-07-25T01:55:01.647Z,24.1
2022-07-25T01:57:16.863Z,24.3
2022-07-25T03:54:21.546Z,23.8
2022-07-25T03:56:36.429Z,23.5
2022-07-25T03:58:51.216Z,21.1
2022-07-25T04:01:06.214Z,21.5
2022-07-25T04:03:21.210Z,22.4
2022-07-25T04:05:35.889Z,23.1
2022-07-25T04:07:50.630Z,22.9
2022-07-25T04:10:05.509Z,22.8
2022-07-25T04:12:20.255Z,23.4
2022-07-25T04:14:35.097Z,23.5
2022-07-25T04:16:50.047Z,23.8
2022-07-25T04:19:04.713Z,24.1
2022-07-25T04:21:19.710Z,23.9
2022-07-25T04:23:34.589Z,25.3
2022-07-25T04:25:49.248Z,25
2022-07-25T04:28:04.195Z,24.5
2022-07-25T04:30:24.263Z,24.9
2022-07-25T04:32:33.802Z,24.6
2022-07-25T04:34:48.848Z,25.4
2022-07-25T04:37:03.732Z,24.9
2022-07-25T04:39:18.738Z,25.6
2022-07-25T04:41:33.374Z,25.2
2022-07-25T04:43:48.839Z,26.1
2022-07-25T04:46:03.217Z,25.6
2022-07-25T04:48:17.915Z,26.1
2022-07-25T04:50:32.833Z,25.6
2022-07-25T04:52:47.571Z,26.3
2022-07-25T04:55:02.433Z,26.3
2022-07-25T04:57:17.321Z,26.1
2022-07-25T04:59:32.098Z,26.4
2022-07-25T05:01:47.038Z,26.5
2022-07-25T05:04:01.921Z,26
2022-07-25T05:06:16.843Z,26.9
2022-07-25T05:08:31.501Z,27
2022-07-25T05:10:46.447Z,26.8
2022-07-25T05:13:01.134Z,26.6
2022-07-25T05:15:15.999Z,27.4
2022-07-25T05:17:30.915Z,28.2
2022-07-25T05:19:45.827Z,27.4
2022-07-25T05:22:00.664Z,27.9
2022-07-25T05:24:15.529Z,28.7
2022-07-25T05:26:30.254Z,27.9
2022-07-25T05:28:45.218Z,27.4
2022-07-25T05:31:00.826Z,27.9
2022-07-25T05:33:14.837Z,27.1
2022-07-25T05:35:47.435Z,28.2
2022-07-25T05:38:01.861Z,27.9
2022-07-25T05:40:17.007Z,28.7
2022-07-25T05:42:31.681Z,28.6
2022-07-25T05:44:46.501Z,28.1
2022-07-25T05:47:01.443Z,28.2
2022-07-25T05:49:16.367Z,28.5
2022-07-25T05:51:31.319Z,29.9
2022-07-25T05:53:45.827Z,28.8
2022-07-25T05:56:00.849Z,28.2
2022-07-25T05:58:15.497Z,28.6
2022-07-25T06:00:30.483Z,29
2022-07-25T06:02:45.454Z,30.3
2022-07-25T06:05:00.210Z,28.8
2022-07-25T06:07:16.965Z,28.6
2022-07-25T06:09:29.786Z,29.1
2022-07-25T06:11:51.178Z,29.1
2022-07-25T06:13:59.969Z,29.6
2022-07-25T06:16:14.936Z,29.7
2022-07-25T06:18:29.655Z,29.3
2022-07-25T06:20:44.455Z,29.2
2022-07-25T06:22:59.394Z,29.5
2022-07-25T06:25:14.128Z,30.1
2022-07-25T06:27:29.632Z,29.5
2022-07-25T06:29:43.930Z,30.4
2022-07-25T06:31:58.843Z,30.3
2022-07-25T06:34:13.808Z,30.2
2022-07-25T06:36:32.064Z,29.7
2022-07-25T06:38:43.300Z,29.5
2022-07-25T06:40:58.178Z,30.2
2022-07-25T06:43:13.804Z,29.5
2022-07-25T06:45:27.915Z,29.6
2022-07-25T06:47:42.723Z,29.9
2022-07-25T06:49:57.479Z,29.9
2022-07-25T06:52:12.353Z,30.3
2022-07-25T06:54:27.347Z,30
2022-07-25T06:56:42.087Z,30.5
2022-07-25T06:58:57.766Z,30.6
2022-07-25T07:01:12.597Z,31
2022-07-25T07:03:26.595Z,30.9
2022-07-25T07:05:41.871Z,31.4
2022-07-25T07:07:57.091Z,32.5
2022-07-25T07:10:11.799Z,32.8
2022-07-25T07:12:26.729Z,31.5
2022-07-25T07:14:42.050Z,30.8
2022-07-25T07:16:56.796Z,31.7
2022-07-25T07:19:11.728Z,31.7
2022-07-25T07:21:26.730Z,31.7
2022-07-25T07:23:41.829Z,31.9
2022-07-25T07:25:56.627Z,32.4
2022-07-25T07:28:11.768Z,33.2
2022-07-25T07:30:37.808Z,32.6
2022-07-25T07:33:04.456Z,33.1
2022-07-25T07:35:18.848Z,32.5
2022-07-25T07:37:37.689Z,32.2
2022-07-25T07:39:49.243Z,32.9
2022-07-25T07:42:03.945Z,32.3
2022-07-25T07:44:18.759Z,34.3
2022-07-25T07:46:33.700Z,33.8
2022-07-25T07:48:48.502Z,33.2
2022-07-25T07:51:03.326Z,33.5
2022-07-25T07:53:18.312Z,35.1
2022-07-25T07:55:32.966Z,35.1
2022-07-25T07:57:47.837Z,35.4
2022-07-25T08:00:02.846Z,36.1
2022-07-25T08:02:17.681Z,36.1
2022-07-25T08:04:32.424Z,35.5
2022-07-25T08:06:47.276Z,36.3
2022-07-25T08:09:02.145Z,36.4
2022-07-25T08:11:16.961Z,36.5
2022-07-25T08:13:31.950Z,37.3
2022-07-25T08:15:47.024Z,39.5
2022-07-25T08:18:01.566Z,39.9
2022-07-25T08:20:37.325Z,38.6
2022-07-25T08:22:39.614Z,37.9
2022-07-25T08:24:53.828Z,38.4
2022-07-25T08:27:09.309Z,39.3
2022-07-25T08:29:34.577Z,40.1
2022-07-25T08:31:50.025Z,40.8
2022-07-25T08:34:05.023Z,40.9
2022-07-25T08:36:19.731Z,41.3
2022-07-25T08:38:34.565Z,41.1
2022-07-25T08:40:48.805Z,41.4
2022-07-25T08:43:04.240Z,41.5
2022-07-25T08:45:19.063Z,42.4
2022-07-25T08:47:33.984Z,41.7
2022-07-25T08:49:48.890Z,42.2
2022-07-25T08:52:03.538Z,41.7
2022-07-25T08:54:34.716Z,42.3
2022-07-25T08:56:49.835Z,42.8
2022-07-25T08:59:04.619Z,43.1
2022-07-25T09:01:19.413Z,42.8
2022-07-25T09:03:34.052Z,43.4
2022-07-25T09:05:49.088Z,43
2022-07-25T09:08:03.884Z,43.7
2022-07-25T09:10:18.799Z,43.5
2022-07-25T09:12:33.749Z,44.1
2022-07-25T09:14:48.574Z,44.1
2022-07-25T09:17:03.319Z,42.8
2022-07-25T09:19:17.689Z,43.6
2022-07-25T09:21:33.026Z,43.3
2022-07-25T09:23:47.281Z,41.6
2022-07-25T09:26:02.685Z,41.1
2022-07-25T09:28:17.613Z,41.6
2022-07-25T09:30:32.281Z,43
2022-07-25T09:32:47.270Z,41.3
2022-07-25T09:35:01.523Z,40.6
2022-07-25T09:37:16.975Z,41.3
2022-07-25T09:39:31.748Z,39.9
2022-07-25T09:41:46.577Z,39.8
2022-07-25T09:44:01.512Z,38.7
2022-07-25T09:46:16.486Z,37.7
2022-07-25T09:48:30.685Z,37.6
2022-07-25T09:50:46.104Z,37.4
2022-07-25T09:53:00.917Z,37.6
2022-07-25T09:55:15.685Z,38.8
2022-07-25T09:57:30.683Z,38.6
2022-07-25T09:59:45.528Z,38.1
2022-07-25T10:02:00.403Z,36.8
2022-07-25T10:04:15.526Z,36.4
2022-07-25T10:06:30.015Z,37.3
2022-07-25T10:08:44.891Z,37.9
2022-07-25T10:10:59.659Z,38.1
2022-07-25T10:13:14.009Z,37.3
2022-07-25T10:15:29.398Z,36.2
2022-07-25T10:17:44.145Z,36.1
2022-07-25T10:19:59.079Z,35.1
2022-07-25T10:22:13.509Z,34.5
2022-07-25T10:24:42.499Z,33.7
2022-07-25T10:26:57.178Z,33.1
2022-07-25T10:29:12.400Z,33.4
2022-07-25T10:31:27.340Z,33.4
2022-07-25T10:33:42.196Z,34.3
2022-07-25T10:35:57.187Z,34.8
2022-07-25T10:38:12.190Z,35.6
2022-07-25T10:40:27.327Z,34.9
2022-07-25T10:42:42.006Z,34.7
2022-07-25T10:44:57.159Z,34.6
2022-07-25T10:47:12.028Z,34.4
2022-07-25T10:49:32.033Z,34.3
2022-07-25T10:52:13.216Z,33.2
2022-07-25T10:54:28.041Z,33.2
2022-07-25T10:56:42.921Z,33.6
2022-07-25T10:59:17.956Z,33.9
2022-07-25T11:01:32.829Z,34.6
2022-07-25T11:03:47.885Z,34.3
2022-07-25T11:06:02.630Z,34.4
2022-07-25T11:08:37.046Z,33.7
2022-07-25T11:10:52.062Z,33.6
2022-07-25T11:13:06.803Z,33.1
2022-07-25T11:15:21.854Z,33.8
2022-07-25T11:17:36.712Z,34.6
2022-07-25T11:19:51.737Z,34.4
2022-07-25T11:22:06.693Z,34.3
2022-07-25T11:24:21.857Z,34.8
2022-07-25T11:26:36.779Z,34.9
2022-07-25T11:28:51.738Z,35.1
2022-07-25T11:31:06.462Z,35.3
2022-07-25T11:33:21.666Z,34.6
2022-07-25T11:35:36.715Z,34.7
2022-07-25T11:37:51.727Z,34.1
2022-07-25T11:40:06.492Z,33.8
2022-07-25T11:42:21.338Z,33.9
2022-07-25T11:44:36.401Z,33.8
2022-07-25T11:46:51.251Z,34.4
2022-07-25T11:49:06.677Z,34.5
2022-07-25T11:51:21.377Z,34.8
2022-07-25T11:53:36.317Z,34.7
2022-07-25T11:55:51.089Z,34.7
2022-07-25T11:58:19.696Z,34.1
2022-07-25T12:00:34.531Z,33.9
2022-07-25T12:02:49.388Z,34.4
2022-07-25T12:05:04.214Z,34.3
2022-07-25T12:07:19.066Z,33.8
2022-07-25T12:09:33.980Z,34.3
2022-07-25T12:11:48.696Z,34.1
2022-07-25T12:14:03.604Z,33.6
2022-07-25T12:16:18.395Z,32.9
2022-07-25T12:18:33.253Z,33.6
2022-07-25T12:20:48.153Z,33.7
2022-07-25T12:23:03.041Z,33.9
2022-07-25T12:25:17.857Z,33.9
2022-07-25T12:27:32.926Z,34.1
2022-07-25T12:29:47.488Z,34.1
2022-07-25T12:32:02.294Z,34.4
2022-07-25T12:34:17.253Z,34.3
2022-07-25T12:36:32.251Z,34.4
2022-07-25T12:38:46.950Z,34.3
2022-07-25T12:41:01.752Z,34.3
2022-07-25T12:43:16.805Z,34
2022-07-25T12:45:31.546Z,34.1
2022-07-25T12:47:46.390Z,33.8
2022-07-25T12:50:01.268Z,33.1
2022-07-25T12:52:15.941Z,33.3
2022-07-25T12:54:30.705Z,33
2022-07-25T12:56:45.728Z,32.9
2022-07-25T12:59:00.545Z,32.9
2022-07-25T13:01:15.457Z,33.2
2022-07-25T13:03:30.400Z,33.6
2022-07-25T13:05:45.064Z,33.4
2022-07-25T13:08:00.101Z,33.5
2022-07-25T13:10:14.926Z,33.4
2022-07-25T13:12:29.625Z,33.3
2022-07-25T13:14:44.557Z,32.6
2022-07-25T13:16:59.453Z,32.4
2022-07-25T13:19:14.718Z,32.2
2022-07-25T13:21:29.184Z,32.6
2022-07-25T13:23:43.880Z,32.6
2022-07-25T13:25:58.702Z,33
2022-07-25T13:28:13.613Z,33
2022-07-25T13:30:28.427Z,32.8
2022-07-25T13:32:43.199Z,33
2022-07-25T13:34:58.115Z,32.9
2022-07-25T13:37:12.924Z,32.9
2022-07-25T13:39:28.046Z,32.6
2022-07-25T13:41:42.694Z,31.9
2022-07-25T13:43:57.718Z,32.4
2022-07-25T13:46:12.391Z,32.6
2022-07-25T13:48:46.020Z,32.6
2022-07-25T13:51:00.920Z,32.7
2022-07-25T13:53:15.679Z,32.4
2022-07-25T13:55:30.626Z,32.2
2022-07-25T13:57:45.555Z,32.8
2022-07-25T14:00:00.696Z,32
2022-07-25T14:02:15.630Z,32.4
2022-07-25T14:04:30.903Z,32.1
2022-07-25T14:06:45.542Z,32.4
2022-07-25T14:09:00.536Z,32.4
2022-07-25T14:11:15.455Z,32.1
2022-07-25T14:13:30.397Z,31.8
2022-07-25T14:15:45.266Z,31.3
2022-07-25T14:18:00.118Z,31.7
2022-07-25T14:20:15.276Z,31.1
2022-07-25T14:22:30.014Z,31.6
2022-07-25T14:24:45.132Z,31.8
2022-07-25T14:27:00.023Z,32
2022-07-25T14:29:15.179Z,31.6
2022-07-25T14:31:30.104Z,31.3
2022-07-25T14:33:45.130Z,31.3
2022-07-25T14:35:59.939Z,31.1
2022-07-25T14:38:14.816Z,30.8
2022-07-25T14:40:29.999Z,30.8
2022-07-25T14:42:44.671Z,30.9
2022-07-25T14:44:59.764Z,30.9
2022-07-25T14:47:14.839Z,30.4
2022-07-25T14:49:29.872Z,30.4
2022-07-25T14:51:44.765Z,30.6
2022-07-25T14:53:59.652Z,30.5
2022-07-25T14:56:14.493Z,30.6
2022-07-25T14:58:30.191Z,30.3
2022-07-25T15:00:44.565Z,30.8
2022-07-25T15:02:59.393Z,30.5
2022-07-25T15:05:14.425Z,30.6
2022-07-25T15:07:29.312Z,30.9
2022-07-25T15:09:44.259Z,31
2022-07-25T15:11:59.180Z,31.2
2022-07-25T15:14:47.345Z,31.1
2022-07-25T15:17:02.258Z,31.2
2022-07-25T15:19:32.926Z,31.1
2022-07-25T15:21:47.097Z,31.3
2022-07-25T15:24:02.241Z,31.3
2022-07-25T15:27:17.940Z,31.1
2022-07-25T15:29:32.759Z,31.3
2022-07-25T15:31:47.752Z,31.3
2022-07-25T15:34:02.380Z,31.3
2022-07-25T15:36:17.549Z,31.3
2022-07-25T15:38:32.169Z,31.1
2022-07-25T15:40:46.938Z,31.1
2022-07-25T15:43:01.987Z,31.3
2022-07-25T15:45:34.321Z,30.8
2022-07-25T15:47:51.041Z,31.5
2022-07-25T15:50:04.666Z,30.6
2022-07-25T15:52:19.516Z,29.9
2022-07-25T15:54:34.384Z,29.8
2022-07-25T15:56:49.158Z,30.4
2022-07-25T15:59:04.186Z,30.8
2022-07-25T16:01:19.016Z,31.1
2022-07-25T16:03:33.715Z,30.3
2022-07-25T16:05:48.554Z,30.5
2022-07-25T16:08:03.439Z,30.5
2022-07-25T16:10:18.275Z,29.9
2022-07-25T16:12:32.969Z,29.8
2022-07-25T16:14:47.880Z,29.5
2022-07-25T16:17:02.665Z,29.6
2022-07-25T16:19:17.634Z,30
2022-07-25T16:21:32.391Z,29.9
2022-07-25T16:23:47.255Z,29.3
2022-07-25T16:26:02.190Z,29.4
2022-07-25T16:28:16.994Z,29.3
2022-07-25T16:30:31.788Z,29.2
2022-07-25T16:32:47.070Z,29.2
2022-07-25T16:35:01.562Z,29
2022-07-25T16:37:16.360Z,28.7
2022-07-25T16:39:31.353Z,28.4
2022-07-25T16:41:46.107Z,28.9
2022-07-25T16:44:01.080Z,29.1
2022-07-25T16:46:15.832Z,28.5
2022-07-25T16:48:30.688Z,28.7
2022-07-25T16:50:45.604Z,30.4
2022-07-25T16:53:00.278Z,29
2022-07-25T16:55:14.745Z,29.7
2022-07-25T16:57:30.142Z,28.8
2022-07-25T16:59:45.331Z,28.8
2022-07-25T17:01:59.579Z,28.7
2022-07-25T17:04:15.086Z,28.6
2022-07-25T17:06:29.935Z,28.6
2022-07-25T17:08:45.672Z,27.9
2022-07-25T17:11:01.469Z,28.4
2022-07-25T17:13:16.396Z,28.4
2022-07-25T17:15:31.249Z,29
2022-07-25T17:17:46.116Z,28
2022-07-25T17:20:00.839Z,27.6
2022-07-25T17:22:15.683Z,28.1
2022-07-25T17:24:30.656Z,28
2022-07-25T17:26:45.481Z,27.8
2022-07-25T17:29:00.286Z,28.6
2022-07-25T17:31:15.220Z,27.8
2022-07-25T17:33:30.003Z,29.3
2022-07-25T17:35:44.817Z,27.6
2022-07-25T17:37:59.720Z,27.8
2022-07-25T17:40:14.590Z,27.4
2022-07-25T17:42:29.369Z,27.1
2022-07-25T17:44:43.794Z,27.1
2022-07-25T17:46:59.293Z,26.9
2022-07-25T17:49:14.384Z,27
2022-07-25T17:51:29.083Z,26.7
2022-07-25T17:53:44.177Z,26.9
2022-07-25T17:58:13.890Z,26.7
2022-07-25T18:00:29.046Z,26.7
2022-07-25T18:04:58.876Z,26.4
2022-07-25T18:07:13.818Z,26.4
2022-07-25T18:09:28.746Z,26
2022-07-25T18:11:43.574Z,26.4
2022-07-25T18:13:58.737Z,27.1
2022-07-25T18:16:13.636Z,25.9
2022-07-25T18:18:28.666Z,26.4
2022-07-25T18:20:43.510Z,27.1
2022-07-25T18:22:58.279Z,26.1
2022-07-25T18:25:13.660Z,26
2022-07-25T18:27:28.264Z,25.3
2022-07-25T18:29:43.352Z,26.1
2022-07-25T18:31:58.092Z,26.4
2022-07-25T18:34:13.192Z,25.3
2022-07-25T18:36:28.082Z,27.3
2022-07-25T18:38:43.121Z,26.1
2022-07-25T18:41:19.188Z,26.4
2022-07-25T18:43:29.134Z,26.6
2022-07-25T18:45:43.893Z,26.6
2022-07-25T18:47:58.688Z,26.4
2022-07-25T18:50:13.567Z,26.4
2022-07-25T18:52:28.531Z,26
2022-07-25T18:54:43.501Z,26.8
2022-07-25T18:56:58.530Z,26.1
2022-07-25T18:59:13.389Z,25.7
2022-07-25T19:01:28.338Z,26
2022-07-25T19:03:43.316Z,25.6
2022-07-25T19:06:02.912Z,25.5
2022-07-25T19:08:13.211Z,25.4
2022-07-25T19:10:27.645Z,26.1
2022-07-25T19:12:43.141Z,25.6
2022-07-25T19:15:11.957Z,26
2022-07-25T19:17:26.850Z,25.9
2022-07-25T19:19:41.800Z,25.4
2022-07-25T19:21:56.715Z,25.8
2022-07-25T19:24:11.948Z,25.4
2022-07-25T19:26:26.871Z,25.8
2022-07-25T19:28:41.732Z,25.5
2022-07-25T19:30:56.566Z,25.1
2022-07-25T19:33:11.368Z,25.6
2022-07-25T19:35:26.581Z,25.4
2022-07-25T19:37:41.290Z,25.8
2022-07-25T19:39:56.492Z,24.8
2022-07-25T19:42:11.232Z,25.9
2022-07-25T19:44:26.428Z,25.7
2022-07-25T19:46:41.499Z,25.3
2022-07-25T19:48:56.413Z,25.6
2022-07-25T19:51:11.552Z,24.2
2022-07-25T19:53:28.566Z,25.6
2022-07-25T19:55:41.149Z,25.9
2022-07-25T19:57:55.896Z,23.9
2022-07-25T20:00:11.585Z,25.5
2022-07-25T20:02:26.356Z,25.5
2022-07-25T20:04:41.407Z,24.8
2022-07-25T20:06:56.214Z,24.8
2022-07-25T20:09:11.583Z,25.3
2022-07-25T20:11:26.190Z,24.8
2022-07-25T20:13:41.326Z,25.2
2022-07-25T20:15:56.234Z,26.2
2022-07-25T20:18:13.865Z,24.8
2022-07-25T20:20:26.038Z,25.2
2022-07-25T20:22:40.963Z,25.1
2022-07-25T20:24:56.001Z,24.8
2022-07-25T20:27:10.908Z,25.1
2022-07-25T20:29:26.289Z,24.4
2022-07-25T20:31:40.882Z,24.4
2022-07-25T20:33:55.822Z,25.8
2022-07-25T20:36:10.658Z,24.9
2022-07-25T20:38:25.572Z,24.8
2022-07-25T20:40:44.026Z,25
2022-07-25T20:42:55.496Z,25.2
2022-07-25T20:45:10.548Z,25.4
2022-07-25T20:47:25.497Z,25.2
2022-07-25T20:49:40.546Z,24.6
2022-07-25T20:51:55.399Z,24.4
2022-07-25T20:54:10.422Z,25.4
2022-07-25T20:56:25.243Z,24.6
2022-07-25T20:58:40.442Z,25
2022-07-25T21:00:55.410Z,24.7
2022-07-25T21:03:10.199Z,25.3
2022-07-25T21:05:25.206Z,25.2
2022-07-25T21:07:45.204Z,24.7
2022-07-25T21:10:00.008Z,23.3
2022-07-25T21:12:14.783Z,24.1
2022-07-25T21:14:29.778Z,25.1
2022-07-25T21:16:44.597Z,24.8
2022-07-25T21:18:59.386Z,23.7
2022-07-25T21:21:14.241Z,24.1
2022-07-25T21:23:29.327Z,24.4
2022-07-25T21:25:43.993Z,24.2
2022-07-25T21:27:58.997Z,23.4
2022-07-25T21:30:13.671Z,23.9
2022-07-25T21:32:28.569Z,23.9
2022-07-25T21:34:43.291Z,23.9
2022-07-25T21:36:58.203Z,23.7
2022-07-25T21:39:13.367Z,24.1
2022-07-25T21:41:28.053Z,24
2022-07-25T21:43:42.895Z,24
2022-07-25T21:45:57.910Z,23.6
2022-07-25T21:48:12.629Z,23.6
2022-07-25T21:50:28.956Z,23.3
2022-07-25T21:52:44.307Z,24
2022-07-25T21:54:58.721Z,23.6
2022-07-25T21:57:14.104Z,23.1
2022-07-25T21:59:28.375Z,23.6
2022-07-25T22:01:43.192Z,23.6
2022-07-25T22:03:58.064Z,23.4
2022-07-25T22:06:12.911Z,23.9
2022-07-25T22:08:27.745Z,24.8
2022-07-25T22:10:42.642Z,23.9
2022-07-25T22:13:10.928Z,24.1
2022-07-25T22:15:25.735Z,22
2022-07-25T22:17:46.035Z,24.7
2022-07-25T22:19:55.650Z,24.3
2022-07-25T22:22:10.297Z,23.3
2022-07-25T22:24:25.069Z,23.1
2022-07-25T22:26:39.999Z,22.3
2022-07-25T22:28:54.814Z,23.4
2022-07-25T22:31:09.802Z,23.9
2022-07-25T22:33:24.409Z,24.4
2022-07-25T22:35:39.556Z,24.3
2022-07-25T22:37:54.254Z,22.8
2022-07-25T22:40:09.220Z,24.4
2022-07-25T22:42:24.059Z,24.4
2022-07-25T22:45:01.572Z,23.9
2022-07-25T22:47:16.332Z,23.1
2022-07-25T22:49:31.396Z,22.6
2022-07-25T22:51:46.434Z,21.6
2022-07-25T22:54:01.337Z,22
2022-07-25T22:56:16.163Z,26.9
2022-07-25T22:58:31.522Z,22.6
2022-07-25T23:00:46.110Z,22.2
2022-07-25T23:03:01.071Z,21.5
2022-07-25T23:05:15.992Z,21.4
2022-07-25T23:07:31.029Z,22.4
2022-07-25T23:09:45.980Z,21.8
2022-07-25T23:12:01.024Z,20.8
2022-07-25T23:14:15.921Z,22.1
2022-07-25T23:16:38.827Z,24.6
2022-07-25T23:18:53.500Z,23.9
2022-07-25T23:21:08.427Z,22.8
2022-07-25T23:23:23.166Z,22.8
2022-07-25T23:25:38.100Z,21.4
2022-07-25T23:27:52.941Z,23.5
2022-07-25T23:30:07.739Z,23.8
2022-07-25T23:32:22.644Z,24.3
2022-07-25T23:34:37.442Z,24.1
2022-07-25T23:36:52.225Z,23.7
2022-07-25T23:39:07.520Z,24.4
2022-07-25T23:41:21.963Z,23.8
2022-07-25T23:43:56.074Z,23.7
2022-07-25T23:46:06.900Z,23.2
2022-07-25T23:48:23.624Z,21.9
2022-07-25T23:50:38.565Z,22.1
2022-07-25T23:52:53.589Z,21.7
2022-07-25T23:55:08.321Z,22.1
2022-07-25T23:57:23.187Z,21.4
